フンシャル の空港の天気 - METARとTAF

マデイラ空港 ( LPMA / FNC ) - ポルトガル フンシャル (マデイラ諸島)
飛行場実況気象(Metar)
観測時間02/01 16:00 WET (02/01 16:00 UTC)
風向・風速北東 6m/s
視程10km以上
天気現象
全天の4割程度の雲 雲底高度 550m
少しの雲 雲底高度 610m
気温18℃
湿度60%
気圧1024hPa
METARLPMA 011600Z 04011KT 010V090 9999 SCT018 FEW020CB 18/10 Q1024
過去の天気等 Google飛行場航空写真 Wunderground天気予報

過去48時間のMETAR

飛行場予報(TAF)
発表時間: 2/01 11:00 WET (2/01 11:00 UTC)
予報対象時間: 1日12時 WET ~ 2日12時 WET
風向・風速東北東 7m/s
視程10km以上
全天の4割程度の雲 雲底高度 460m
1日12時 WET ~ 1日20時 WET に 確率 30% で一時的に
視程8000m
天気現象しゅう雨
全天の8割程度の雲 雲底高度 400m
少しの積乱雲 雲底高度 550m
TAF LPMA 011100Z 0112/0212 06013KT 9999 SCT015
PROB30 TEMPO 0112/0120 8000 SHRA BKN013 FEW018CB